createdAt,value
2022-08-03T00:02:51.204Z,4.80
2022-08-03T00:12:55.663Z,4.70
2022-08-03T00:22:58.649Z,4.97
2022-08-03T00:33:03.516Z,5.00
2022-08-03T00:43:08.146Z,4.38
2022-08-03T00:53:13.760Z,4.88
2022-08-03T01:03:16.791Z,5.80
2022-08-03T01:14:01.640Z,6.05
2022-08-03T01:24:02.656Z,4.60
2022-08-03T01:34:13.219Z,5.07
2022-08-03T01:44:30.231Z,6.15
2022-08-03T01:54:37.298Z,7.25
2022-08-03T02:04:43.983Z,7.25
2022-08-03T02:14:51.268Z,6.22
2022-08-03T02:24:54.973Z,5.93
2022-08-03T02:35:02.997Z,6.25
2022-08-03T02:45:10.739Z,6.68
2022-08-03T02:55:19.979Z,5.97
2022-08-03T03:05:55.927Z,5.80
2022-08-03T03:15:48.934Z,5.70
2022-08-03T03:25:53.637Z,6.18
2022-08-03T03:35:59.082Z,5.65
2022-08-03T03:46:03.330Z,5.97
2022-08-03T03:56:07.911Z,5.25
2022-08-03T04:06:30.397Z,6.10
2022-08-03T04:16:43.199Z,5.40
2022-08-03T04:26:52.893Z,5.45
2022-08-03T04:37:00.354Z,5.30
2022-08-03T04:47:03.931Z,6.15
2022-08-03T04:57:09.022Z,5.25
2022-08-03T05:07:12.865Z,5.47
2022-08-03T05:17:17.467Z,5.10
2022-08-03T05:27:20.793Z,5.50
2022-08-03T05:37:25.646Z,6.30
2022-08-03T05:47:28.879Z,4.85
2022-08-03T05:57:51.005Z,4.40
2022-08-03T06:08:00.314Z,3.47
2022-08-03T06:18:16.892Z,3.10
2022-08-03T06:28:53.099Z,3.63
2022-08-03T06:38:52.573Z,3.03
2022-08-03T06:49:01.490Z,2.88
2022-08-03T06:59:07.270Z,2.90
2022-08-03T07:09:13.374Z,1.80
2022-08-03T07:19:18.257Z,2.75
2022-08-03T07:29:21.465Z,2.63
2022-08-03T07:39:26.071Z,2.25
2022-08-03T07:49:29.160Z,2.17
2022-08-03T07:59:56.415Z,2.00
2022-08-03T08:09:58.689Z,1.90
2022-08-03T08:20:03.761Z,3.13
2022-08-03T08:30:11.436Z,3.47
2022-08-03T08:40:22.173Z,2.92
2022-08-03T08:50:27.868Z,3.42
2022-08-03T09:00:37.526Z,3.42
2022-08-03T09:10:58.703Z,2.45
2022-08-03T09:31:43.001Z,3.30
2022-08-03T09:42:08.368Z,2.80
2022-08-03T09:52:39.323Z,2.53
2022-08-03T10:02:51.604Z,2.80
2022-08-03T10:13:29.572Z,2.17
2022-08-03T10:34:35.265Z,3.45
2022-08-03T10:44:53.257Z,2.35
2022-08-03T11:07:04.964Z,2.67
2022-08-03T11:17:28.476Z,2.92
2022-08-03T11:27:47.303Z,4.13
2022-08-03T11:38:25.401Z,3.45
2022-08-03T11:48:45.265Z,3.65
2022-08-03T11:59:16.665Z,3.60
2022-08-03T12:09:55.206Z,3.78
2022-08-03T12:20:31.247Z,3.80
2022-08-03T12:30:41.429Z,4.07
2022-08-03T12:41:16.768Z,3.83
2022-08-03T12:51:26.970Z,4.03
2022-08-03T13:13:18.681Z,4.45
2022-08-03T13:34:30.099Z,4.93
2022-08-03T13:55:19.506Z,3.53
2022-08-03T14:05:30.518Z,3.55
2022-08-03T14:15:41.121Z,3.42
2022-08-03T14:26:15.507Z,4.15
2022-08-03T14:36:29.004Z,4.73
2022-08-03T14:56:45.949Z,4.65
2022-08-03T15:06:51.371Z,4.43
2022-08-03T15:16:58.089Z,4.20
2022-08-03T15:27:01.970Z,3.80
2022-08-03T15:37:23.204Z,4.38
2022-08-03T15:47:26.891Z,4.87
2022-08-03T15:57:31.674Z,4.45
2022-08-03T16:08:03.100Z,4.22
2022-08-03T16:18:08.559Z,5.25
2022-08-03T16:28:14.263Z,5.25
2022-08-03T16:38:19.726Z,6.22
2022-08-03T16:48:23.003Z,5.28
2022-08-03T16:58:41.184Z,4.28
2022-08-03T17:08:55.507Z,5.00
2022-08-03T17:19:04.130Z,3.90
2022-08-03T17:29:12.546Z,5.18
2022-08-03T17:40:00.391Z,4.18
2022-08-03T17:50:23.626Z,4.93
2022-08-03T18:00:51.562Z,4.53
2022-08-03T18:11:09.579Z,4.30
2022-08-03T18:21:22.303Z,5.43
2022-08-03T18:32:03.580Z,5.93
2022-08-03T18:41:52.353Z,6.75
2022-08-03T18:52:03.967Z,7.43
2022-08-03T19:02:21.099Z,6.40
2022-08-03T19:12:35.472Z,8.15
2022-08-03T19:22:45.936Z,6.88
2022-08-03T19:32:50.992Z,10.43
2022-08-03T19:43:01.166Z,6.30
2022-08-03T19:53:10.220Z,6.50
2022-08-03T20:03:19.671Z,6.97
2022-08-03T20:13:28.323Z,7.28
2022-08-03T20:23:38.465Z,7.32
2022-08-03T20:34:01.988Z,10.32
2022-08-03T20:44:07.108Z,7.00
2022-08-03T20:54:28.715Z,5.78
2022-08-03T21:04:35.217Z,7.05
2022-08-03T21:14:50.363Z,8.77
2022-08-03T21:24:57.978Z,5.00
2022-08-03T21:35:01.782Z,7.60
2022-08-03T21:45:11.812Z,8.73
2022-08-03T21:55:18.296Z,7.10
2022-08-03T22:05:42.560Z,7.50
2022-08-03T22:15:49.152Z,6.85
2022-08-03T22:25:56.858Z,6.88
2022-08-03T22:36:03.489Z,6.72
2022-08-03T22:46:15.625Z,6.65
2022-08-03T22:56:22.212Z,5.82
2022-08-03T23:06:31.890Z,5.95
2022-08-03T23:16:39.533Z,6.43
2022-08-03T23:26:44.620Z,6.32
2022-08-03T23:36:49.637Z,5.75
2022-08-03T23:46:54.303Z,5.35
2022-08-03T23:57:13.617Z,6.32
